Portada
METAR-TAF:

METAR-TAF

Aeropuertos :

Morón de la Frontera, España

Base Aérea de Morón

latitud: 37-09N, longitud: 005-37W, altitud: 87 m

Observación

El informe se hizo hace 43 minutos, a las 04:00 UTC
Viento 7 kt del sur-suroeste, variando entre sur y oeste-suroeste
Temperatura 18°C
Humedad 83%
Presión 1012 hPa
Visibilidad 10 km o más
sin nubes por debajo de 1500 m y sin presencia de cumulonimbus.

METAR: LEMO 210400Z 21007KT 190V250 CAVOK 18/15 Q1012 NOSIG

Hora: 06:43 (04:43 UTC)

Pronóstico

El informe se hizo hace 2 horas y 43 minutos, a las 02:00 UTC
Pronóstico válido del 21 a las 03 UTC al 21 a las 12 UTC
Viento 7 kt del sur-suroeste
Visibilidad 10 km o más
sin nubes por debajo de 1500 m y sin presencia de cumulonimbus.

TAF: LEMO 210200Z 2103/2112 20007KT CAVOK

Observaciones y pronósticos meteorológicos de más de 4000 aeropuertos (mensajes METAR y TAF).

Los puntos amarillos y rojos representan las estaciones disponibles.

Ponga el ratón en el punto deseado para ver el nombre de la estación.

Haga clic para ver las observaciones y los pronósticos meteorológicos.

Para cambiar el mapa : haga clic en los botones verdes con una cruz de color negro para hacer un zoom, en el botón verde con un guión para alejar o en las flechas verdes para mapas adyacentes.


METAR-TAF: